createdAt,value
2022-10-01T00:07:37.865Z,11.34
2022-10-01T00:18:48.575Z,11.31
2022-10-01T00:29:46.126Z,11.29
2022-10-01T00:40:45.867Z,11.32
2022-10-01T00:51:18.192Z,11.39
2022-10-01T01:02:14.803Z,11.43
2022-10-01T01:13:05.328Z,11.40
2022-10-01T01:23:43.467Z,11.37
2022-10-01T01:34:01.328Z,11.32
2022-10-01T01:44:27.850Z,11.24
2022-10-01T01:54:45.203Z,11.25
2022-10-01T02:05:03.667Z,11.19
2022-10-01T02:15:36.280Z,11.25
2022-10-01T02:26:32.313Z,11.20
2022-10-01T02:36:42.635Z,11.22
2022-10-01T02:47:21.077Z,11.22
2022-10-01T02:57:42.209Z,11.22
2022-10-01T03:08:07.549Z,11.21
2022-10-01T03:18:39.490Z,11.16
2022-10-01T03:28:57.588Z,11.08
2022-10-01T03:39:50.107Z,10.95
2022-10-01T03:50:48.580Z,10.83
2022-10-01T04:01:20.259Z,10.67
2022-10-01T04:12:12.116Z,10.44
2022-10-01T04:22:51.382Z,10.36
2022-10-01T04:33:43.042Z,10.14
2022-10-01T04:44:12.953Z,10.10
2022-10-01T04:54:43.294Z,9.95
2022-10-01T05:05:06.517Z,9.79
2022-10-01T05:15:31.936Z,9.55
2022-10-01T05:26:29.852Z,9.39
2022-10-01T05:37:03.170Z,9.26
2022-10-01T05:47:23.681Z,9.31
2022-10-01T05:57:39.966Z,9.41
2022-10-01T06:08:46.609Z,9.57
2022-10-01T06:19:07.986Z,9.90
2022-10-01T06:29:35.577Z,10.29
2022-10-01T06:40:08.246Z,10.62
2022-10-01T06:50:44.137Z,10.98
2022-10-01T07:01:03.517Z,11.30
2022-10-01T07:11:57.921Z,11.60
2022-10-01T07:22:24.960Z,11.83
2022-10-01T07:33:16.973Z,11.96
2022-10-01T07:43:53.920Z,12.20
2022-10-01T07:54:32.458Z,12.45
2022-10-01T08:05:40.374Z,12.78
2022-10-01T08:16:18.719Z,13.05
2022-10-01T08:26:30.845Z,13.15
2022-10-01T08:36:35.851Z,13.16
2022-10-01T08:46:55.918Z,13.27
2022-10-01T08:57:25.168Z,13.33
2022-10-01T09:07:41.725Z,13.27
2022-10-01T09:18:27.129Z,13.15
2022-10-01T09:28:35.182Z,13.11
2022-10-01T09:38:42.997Z,12.99
2022-10-01T09:49:50.742Z,12.98
2022-10-01T10:00:18.612Z,13.20
2022-10-01T10:10:39.748Z,13.30
2022-10-01T10:20:52.924Z,13.27
2022-10-01T10:31:27.032Z,13.22
2022-10-01T10:41:38.156Z,13.24
2022-10-01T10:52:05.018Z,13.23
2022-10-01T11:02:21.520Z,13.48
2022-10-01T11:13:06.800Z,13.77
2022-10-01T11:23:36.835Z,14.09
2022-10-01T11:34:13.884Z,14.23
2022-10-01T11:45:00.836Z,14.26
2022-10-01T11:55:53.297Z,14.35
2022-10-01T12:06:25.098Z,14.60
2022-10-01T12:16:57.886Z,14.73
2022-10-01T12:27:44.588Z,14.99
2022-10-01T12:38:35.356Z,14.96
2022-10-01T12:49:25.181Z,15.02
2022-10-01T13:00:08.042Z,15.11
2022-10-01T13:11:00.566Z,15.08
2022-10-01T13:21:38.543Z,14.95
2022-10-01T13:32:03.872Z,14.92
2022-10-01T13:42:18.530Z,14.93
2022-10-01T13:52:25.442Z,14.87
2022-10-01T14:03:01.171Z,14.76
2022-10-01T14:13:37.128Z,14.70
2022-10-01T14:24:40.262Z,14.67
2022-10-01T14:35:02.675Z,14.71
2022-10-01T14:45:25.138Z,14.56
2022-10-01T14:55:30.059Z,14.45
2022-10-01T15:05:37.457Z,14.40
2022-10-01T15:16:23.953Z,14.32
2022-10-01T15:27:00.691Z,14.18
2022-10-01T15:37:11.564Z,14.09
2022-10-01T15:47:45.534Z,14.01
2022-10-01T15:58:07.843Z,13.92
2022-10-01T16:08:24.427Z,13.86
2022-10-01T16:18:52.862Z,13.77
2022-10-01T16:29:27.095Z,13.61
2022-10-01T16:40:30.050Z,13.48
2022-10-01T16:51:22.610Z,13.43
2022-10-01T17:01:29.630Z,13.41
2022-10-01T17:11:38.862Z,13.35
2022-10-01T17:22:11.746Z,13.33
2022-10-01T17:32:20.382Z,13.33
2022-10-01T17:42:51.591Z,13.28
2022-10-01T17:52:59.077Z,13.27
2022-10-01T18:03:08.150Z,13.20
2022-10-01T18:13:22.351Z,13.10
2022-10-01T18:23:38.770Z,13.02
2022-10-01T18:34:11.531Z,12.91
2022-10-01T18:44:28.665Z,12.81
2022-10-01T18:55:06.701Z,12.70
2022-10-01T19:05:59.500Z,12.61
2022-10-01T19:16:38.117Z,12.56
2022-10-01T19:27:01.327Z,12.52
2022-10-01T19:38:02.673Z,12.55
2022-10-01T19:48:51.506Z,12.53
2022-10-01T19:59:23.182Z,12.51
2022-10-01T20:10:05.539Z,12.48
2022-10-01T20:20:42.833Z,12.46
2022-10-01T20:31:10.426Z,12.46
2022-10-01T20:41:48.629Z,12.41
2022-10-01T20:53:04.013Z,12.36
2022-10-01T21:04:16.505Z,12.42
2022-10-01T21:14:28.186Z,12.36
2022-10-01T21:25:26.007Z,12.27
2022-10-01T21:36:10.036Z,12.30
2022-10-01T21:46:31.914Z,12.25
2022-10-01T21:56:55.121Z,12.20
2022-10-01T22:07:49.968Z,12.08
2022-10-01T22:18:18.623Z,11.98
2022-10-01T22:28:53.978Z,11.95
2022-10-01T22:39:54.179Z,11.88
2022-10-01T22:50:53.734Z,11.80
2022-10-01T23:01:38.038Z,11.80
2022-10-01T23:12:57.802Z,11.78
2022-10-01T23:24:18.758Z,11.78
2022-10-01T23:34:52.485Z,11.77
2022-10-01T23:45:37.097Z,11.81
2022-10-01T23:56:34.912Z,11.78
